FAMM/MBD METAR and TAF weather

Enter ICAO airport designator
Station Type Date Time Source
FAMM METAR 2021/03/08 03:00 UTC NOAA

FAMM 080300Z 12003KT CAVOK 13/10 Q1017 NOSIG


Station Type Date Time Source
FAMM Decoded METAR 2021/03/08 03:00 UTC NOAA

Mafikeng Intl. Ad, South Africa (FAMM) 25-47S 025-32E 1300M
Mar 07, 2021 - 10:00 PM EST / 2021.03.08 0300 UTC
Wind: from the ESE (120 degrees) at 3 MPH (3 KT):0
Visibility: greater than 7 mile(s):0
Temperature: 55 F (13 C)
Dew Point: 50 F (10 C)
Relative Humidity: 81%
Pressure (altimeter): 30.03 in. Hg (1017 hPa)
ob: FAMM 080300Z 12003KT CAVOK 13/10 Q1017 NOSIG
cycle: 3

Station Type Date Time Source
FAMM TAF 2019/01/01 10:00 UTC NOAA

TAF FAMM 010900Z 0110/0118 04008KT 9999 BKN015
BECMG 0111/0113 34010KT BKN025 TX25/0113Z TN22/0118Z

Example: see airport list